Time;durP1;ratioP1;P1;durP2;ratioP2;P2;SDS_P1;SDS_P2;PMS_P1;PMS_P2;Temp;Humidity;BMP_temperature;BMP_pressure;BME280_temperature;BME280_humidity;BME280_pressure;Samples;Min_cycle;Max_cycle;Signal;HPM_P1;HPM_P2
2022/05/02 00:02:06;;;;;;;10.77;6.83;;;9.90;99.90;;;;;;5071201;28;20665;-83
2022/05/02 00:04:32;;;;;;;11.20;7.00;;;9.90;99.90;;;;;;5071243;28;20434;-84
2022/05/02 00:06:57;;;;;;;8.93;6.27;;;10.00;99.90;;;;;;5070817;28;20809;-83
2022/05/02 00:09:23;;;;;;;9.60;6.83;;;9.90;99.90;;;;;;5070849;28;20180;-85
2022/05/02 00:11:49;;;;;;;11.27;7.53;;;9.90;99.90;;;;;;5070493;28;20215;-84
2022/05/02 00:14:14;;;;;;;9.90;7.40;;;9.80;99.90;;;;;;5070886;28;20234;-85
2022/05/02 00:16:40;;;;;;;11.17;7.50;;;9.70;99.90;;;;;;5053726;28;20214;-84
2022/05/02 00:19:05;;;;;;;10.43;7.30;;;9.70;99.90;;;;;;5070750;28;20186;-84
2022/05/02 00:21:31;;;;;;;10.17;7.17;;;9.60;99.90;;;;;;5053710;28;20176;-84
2022/05/02 00:23:56;;;;;;;7.70;6.07;;;9.60;99.90;;;;;;5054065;28;20257;-85
2022/05/02 00:26:22;;;;;;;13.73;7.67;;;9.50;99.90;;;;;;5055301;28;20175;-84
2022/05/02 00:28:47;;;;;;;10.40;7.00;;;9.40;99.90;;;;;;5070386;28;20720;-83
2022/05/02 00:31:13;;;;;;;10.00;6.93;;;9.40;99.90;;;;;;5070219;28;20191;-83
2022/05/02 00:33:38;;;;;;;14.13;7.93;;;9.40;99.90;;;;;;5070285;28;20294;-85
2022/05/02 00:36:04;;;;;;;10.60;7.70;;;9.50;99.90;;;;;;5070327;28;20242;-84
2022/05/02 00:38:30;;;;;;;10.20;7.63;;;9.50;99.90;;;;;;5069912;28;20179;-83
2022/05/02 00:40:57;;;;;;;12.47;8.17;;;9.50;99.90;;;;;;5070045;28;20475;-83
2022/05/02 00:43:23;;;;;;;10.00;7.30;;;9.50;99.90;;;;;;5054665;28;20219;-84
2022/05/02 00:45:49;;;;;;;10.53;7.70;;;9.40;99.90;;;;;;5070213;28;20809;-84
2022/05/02 00:48:15;;;;;;;10.30;6.83;;;9.40;99.90;;;;;;5053574;28;20627;-85
2022/05/02 00:50:47;;;;;;;11.17;7.40;;;9.40;99.90;;;;;;5069690;28;20422;-83
2022/05/02 00:53:14;;;;;;;11.27;7.37;;;9.40;99.90;;;;;;5070173;28;20260;-84
2022/05/02 00:55:41;;;;;;;9.70;7.80;;;9.30;99.90;;;;;;5054570;28;20542;-84
2022/05/02 00:58:07;;;;;;;9.83;7.10;;;9.30;99.90;;;;;;5069729;28;20804;-84
2022/05/02 01:00:36;;;;;;;9.60;7.13;;;9.20;99.90;;;;;;5052541;28;20453;-84
2022/05/02 01:03:03;;;;;;;9.17;6.80;;;9.20;99.90;;;;;;5053082;28;21018;-84
2022/05/02 01:05:29;;;;;;;10.20;8.00;;;9.10;99.90;;;;;;5069726;28;20533;-83
2022/05/02 01:07:55;;;;;;;11.20;6.83;;;9.20;99.90;;;;;;5069663;28;20509;-83
2022/05/02 01:10:21;;;;;;;9.23;6.77;;;9.10;99.90;;;;;;5069540;28;20441;-84
2022/05/02 01:12:48;;;;;;;9.47;7.33;;;9.00;99.90;;;;;;5052910;28;20422;-84
2022/05/02 01:15:15;;;;;;;10.33;7.80;;;9.10;99.90;;;;;;5054043;28;20250;-83
2022/05/02 01:17:41;;;;;;;8.70;6.40;;;9.00;99.90;;;;;;5052644;28;20422;-83
2022/05/02 01:20:09;;;;;;;10.57;6.67;;;9.00;99.90;;;;;;5054178;28;20838;-83
2022/05/02 01:22:34;;;;;;;10.77;7.77;;;9.00;99.90;;;;;;5069255;28;20958;-85
2022/05/02 01:25:00;;;;;;;12.80;7.00;;;9.00;99.90;;;;;;5052820;28;20520;-83
2022/05/02 01:27:25;;;;;;;10.23;7.00;;;9.00;99.90;;;;;;5053948;28;20258;-84
2022/05/02 01:29:51;;;;;;;9.63;6.40;;;9.10;99.90;;;;;;5069107;28;20175;-83
2022/05/02 01:32:16;;;;;;;8.50;6.43;;;9.20;99.90;;;;;;5053735;28;20179;-84
2022/05/02 01:34:43;;;;;;;9.50;6.70;;;9.20;99.90;;;;;;5068887;28;20211;-84
2022/05/02 01:37:10;;;;;;;10.03;7.93;;;9.30;99.90;;;;;;5053671;28;20674;-84
2022/05/02 01:39:36;;;;;;;9.53;7.57;;;9.40;99.90;;;;;;5068837;28;20568;-85
2022/05/02 01:42:07;;;;;;;8.93;6.53;;;9.50;99.90;;;;;;5068354;28;20422;-84
2022/05/02 01:44:34;;;;;;;14.17;8.00;;;9.60;99.90;;;;;;5068735;28;20457;-83
2022/05/02 01:46:59;;;;;;;9.20;7.63;;;9.60;99.90;;;;;;5069370;22;20497;-81
2022/05/02 01:49:25;;;;;;;9.80;7.23;;;9.70;99.90;;;;;;5015878;28;20511;-83
2022/05/02 01:51:51;;;;;;;10.60;6.70;;;9.70;99.90;;;;;;5015873;28;20724;-81
2022/05/02 01:54:17;;;;;;;8.57;6.30;;;9.80;99.90;;;;;;5034051;28;20208;-82
2022/05/02 01:56:44;;;;;;;10.30;7.23;;;9.80;99.90;;;;;;5015841;28;20477;-83
2022/05/02 01:59:09;;;;;;;10.50;6.70;;;9.80;99.90;;;;;;5033180;28;20407;-82
2022/05/02 02:01:35;;;;;;;8.13;7.13;;;9.80;99.90;;;;;;5031826;28;20407;-82
2022/05/02 02:05:48;;;;;;;12.50;6.77;;;9.80;99.90;;;;;;5031906;28;20180;-82
2022/05/02 02:06:47;;;;;;;10.00;7.03;;;9.90;99.90;;;;;;5033018;28;20206;-82
2022/05/02 02:09:13;;;;;;;12.87;8.10;;;9.90;99.90;;;;;;5033577;28;20465;-82
2022/05/02 02:11:38;;;;;;;12.40;8.07;;;9.90;99.90;;;;;;5031337;28;20339;-82
2022/05/02 02:14:04;;;;;;;12.90;8.40;;;10.00;99.90;;;;;;5031774;28;20636;-82
2022/05/02 02:16:29;;;;;;;11.00;7.93;;;9.90;99.90;;;;;;5032223;28;20211;-82
2022/05/02 02:18:55;;;;;;;11.53;8.60;;;9.90;99.90;;;;;;5032301;28;20177;-82
2022/05/02 02:21:20;;;;;;;7.77;6.90;;;10.00;99.90;;;;;;5030685;28;20181;-82
2022/05/02 02:23:46;;;;;;;11.87;8.23;;;10.00;99.90;;;;;;5031228;28;20204;-82
2022/05/02 02:26:12;;;;;;;10.43;7.57;;;10.00;99.90;;;;;;5030803;28;20576;-82
2022/05/02 02:28:38;;;;;;;11.83;7.87;;;10.00;99.90;;;;;;5032118;28;20181;-81
2022/05/02 02:31:04;;;;;;;9.67;7.87;;;10.00;99.90;;;;;;5030610;28;20269;-82
2022/05/02 02:33:30;;;;;;;10.17;7.50;;;10.00;99.90;;;;;;5031908;28;20457;-82
2022/05/02 02:35:56;;;;;;;10.30;7.83;;;10.00;99.90;;;;;;5030600;28;20208;-82
2022/05/02 02:38:22;;;;;;;12.03;8.03;;;10.00;99.90;;;;;;5030776;28;20418;-82
2022/05/02 02:40:48;;;;;;;10.47;7.67;;;10.00;99.90;;;;;;5031947;28;20411;-84
2022/05/02 02:43:13;;;;;;;12.50;8.47;;;10.00;99.90;;;;;;5031913;28;20180;-82
2022/05/02 02:45:39;;;;;;;12.97;7.37;;;10.00;99.90;;;;;;5030529;28;20205;-82
2022/05/02 02:48:05;;;;;;;12.67;9.50;;;10.00;99.90;;;;;;5030638;28;20738;-82
2022/05/02 02:50:31;;;;;;;11.53;8.50;;;10.00;99.90;;;;;;5030162;28;20187;-81
2022/05/02 02:52:56;;;;;;;11.33;7.93;;;9.90;99.90;;;;;;5030869;28;20997;-82
2022/05/02 02:55:22;;;;;;;10.40;7.93;;;9.90;99.90;;;;;;5030294;28;20220;-81
2022/05/02 02:57:48;;;;;;;11.23;8.90;;;9.90;99.90;;;;;;5031960;28;20195;-82
2022/05/02 03:00:14;;;;;;;11.33;7.90;;;9.90;99.90;;;;;;5033504;28;20177;-81
2022/05/02 03:02:42;;;;;;;11.13;9.20;;;9.80;99.90;;;;;;5034751;28;20187;-82
2022/05/02 03:07:52;;;;;;;12.70;8.97;;;10.00;99.90;;;;;;5036122;28;20402;-82
2022/05/02 03:10:18;;;;;;;12.60;8.67;;;10.00;99.90;;;;;;5035388;28;20408;-82
2022/05/02 03:12:45;;;;;;;12.13;8.30;;;10.00;99.90;;;;;;5034455;28;20411;-81
2022/05/02 03:15:11;;;;;;;13.27;8.63;;;9.80;99.90;;;;;;5035287;28;20176;-81
2022/05/02 03:17:36;;;;;;;11.90;9.30;;;9.90;99.90;;;;;;5034174;28;20473;-82
2022/05/02 03:20:02;;;;;;;13.77;9.70;;;9.80;99.90;;;;;;5017618;28;20852;-81
2022/05/02 03:22:28;;;;;;;12.47;8.57;;;9.90;99.90;;;;;;5035410;28;20175;-82
2022/05/02 03:24:54;;;;;;;10.73;8.90;;;9.80;99.90;;;;;;5035715;28;20757;-82
2022/05/02 03:27:19;;;;;;;13.70;9.40;;;9.80;99.90;;;;;;5034005;28;20203;-82
2022/05/02 03:29:45;;;;;;;13.90;9.67;;;9.90;99.90;;;;;;5034289;28;20206;-82
2022/05/02 03:32:11;;;;;;;12.00;9.40;;;9.80;99.90;;;;;;5035005;28;20663;-82
2022/05/02 03:34:36;;;;;;;13.63;9.27;;;9.80;99.90;;;;;;5034214;28;20694;-81
2022/05/02 03:37:02;;;;;;;10.43;9.10;;;9.90;99.90;;;;;;5033510;28;20212;-83
2022/05/02 03:39:28;;;;;;;12.43;8.90;;;9.90;99.90;;;;;;5035334;28;20224;-82
2022/05/02 03:41:54;;;;;;;14.87;10.10;;;9.90;99.90;;;;;;5033772;28;20413;-82
2022/05/02 03:44:19;;;;;;;12.33;8.83;;;10.00;99.90;;;;;;5017479;28;20172;-81
2022/05/02 03:46:45;;;;;;;11.70;8.80;;;10.10;99.90;;;;;;5034840;28;20635;-81
2022/05/02 03:49:10;;;;;;;12.73;8.83;;;10.10;99.90;;;;;;5033566;28;20234;-81
2022/05/02 03:51:36;;;;;;;14.90;9.77;;;10.10;99.90;;;;;;5033554;28;20188;-82
2022/05/02 03:54:02;;;;;;;13.53;9.50;;;10.10;99.90;;;;;;5035004;28;20176;-82
2022/05/02 03:56:27;;;;;;;11.63;8.83;;;10.10;99.90;;;;;;5034850;28;20236;-82
2022/05/02 03:58:53;;;;;;;13.87;9.70;;;10.10;99.90;;;;;;5034854;28;20183;-81
2022/05/02 04:01:19;;;;;;;11.07;8.20;;;10.10;99.90;;;;;;5033342;28;20526;-82
2022/05/02 04:03:46;;;;;;;12.93;8.73;;;10.10;99.90;;;;;;5033654;28;20173;-82
2022/05/02 04:06:12;;;;;;;16.23;9.97;;;10.20;99.90;;;;;;5033079;28;20204;-82
2022/05/02 04:08:37;;;;;;;13.37;9.73;;;10.10;99.90;;;;;;5036982;28;20419;-81
2022/05/02 04:11:03;;;;;;;12.23;9.40;;;10.10;99.90;;;;;;5033916;28;20512;-83
2022/05/02 04:13:29;;;;;;;12.83;9.50;;;10.00;99.90;;;;;;5034798;28;20226;-82
2022/05/02 04:15:54;;;;;;;14.77;10.43;;;10.00;99.90;;;;;;5034137;28;20222;-82
2022/05/02 04:18:20;;;;;;;16.17;8.90;;;10.00;99.90;;;;;;5035865;28;20184;-82
2022/05/02 04:20:45;;;;;;;13.33;10.13;;;10.00;99.90;;;;;;5034542;28;20680;-82
2022/05/02 04:23:11;;;;;;;14.50;9.90;;;10.00;99.90;;;;;;5039625;28;20550;-83
2022/05/02 04:25:37;;;;;;;14.77;9.50;;;10.10;99.90;;;;;;5040535;28;20694;-83
2022/05/02 04:28:02;;;;;;;13.47;9.73;;;10.10;99.90;;;;;;5038092;28;20180;-84
2022/05/02 04:30:28;;;;;;;11.77;8.97;;;10.10;99.90;;;;;;5037952;28;20251;-82
2022/05/02 04:32:54;;;;;;;15.57;10.03;;;10.10;99.90;;;;;;5039610;28;20219;-84
2022/05/02 04:35:19;;;;;;;12.37;9.93;;;10.00;99.90;;;;;;5037171;28;20224;-83
2022/05/02 04:37:45;;;;;;;13.50;9.63;;;10.00;99.90;;;;;;5037494;28;20181;-83
2022/05/02 04:40:11;;;;;;;13.13;9.30;;;10.10;99.90;;;;;;5038726;28;20176;-82
2022/05/02 04:42:38;;;;;;;13.30;9.53;;;10.10;99.90;;;;;;5038943;28;20242;-82
2022/05/02 04:45:04;;;;;;;15.97;10.67;;;10.10;99.90;;;;;;5038606;28;20754;-83
2022/05/02 04:47:29;;;;;;;15.73;10.87;;;10.10;99.90;;;;;;5036727;28;21050;-83
2022/05/02 04:49:55;;;;;;;15.23;11.73;;;10.10;99.90;;;;;;5038630;28;20500;-82
2022/05/02 04:52:20;;;;;;;16.50;10.67;;;10.20;99.90;;;;;;5036823;28;20184;-82
2022/05/02 04:54:46;;;;;;;14.10;10.80;;;10.20;99.90;;;;;;5035957;28;20183;-82
2022/05/02 04:57:12;;;;;;;14.43;10.30;;;10.20;99.90;;;;;;5034071;28;20262;-82
2022/05/02 04:59:37;;;;;;;14.97;11.47;;;10.20;99.90;;;;;;5033930;28;20251;-82
2022/05/02 05:02:04;;;;;;;13.47;10.43;;;10.30;99.90;;;;;;5032186;28;20179;-81
2022/05/02 05:04:29;;;;;;;12.10;9.40;;;10.30;99.90;;;;;;5032329;28;20188;-82
2022/05/02 05:06:55;;;;;;;19.90;10.40;;;10.30;99.90;;;;;;5033592;28;20804;-82
2022/05/02 05:09:20;;;;;;;15.50;10.67;;;10.30;99.90;;;;;;5032284;28;20567;-82
2022/05/02 05:12:24;;;;;;;15.27;10.40;;;10.40;99.90;;;;;;5033324;28;20603;-82
2022/05/02 05:18:07;;;;;;;16.43;10.53;;;10.70;99.90;;;;;;5033444;28;20405;-82
2022/05/02 05:20:57;;;;;;;13.23;9.50;;;10.70;99.90;;;;;;5032990;28;20459;-82
2022/05/02 05:23:33;;;;;;;14.37;11.40;;;10.90;99.90;;;;;;5032522;28;20398;-82
2022/05/02 05:26:20;;;;;;;16.03;11.20;;;10.90;99.90;;;;;;5015394;28;20568;-82
2022/05/02 05:29:19;;;;;;;12.30;9.37;;;10.90;99.90;;;;;;5035424;28;20478;-82
2022/05/02 05:32:03;;;;;;;12.97;9.40;;;10.90;99.90;;;;;;5031913;28;20407;-82
2022/05/02 05:34:48;;;;;;;15.03;11.70;;;10.90;99.90;;;;;;5016179;28;20815;-82
2022/05/02 05:37:53;;;;;;;13.80;11.20;;;10.90;99.90;;;;;;5033289;28;20984;-82
2022/05/02 05:40:22;;;;;;;15.70;10.70;;;11.00;99.90;;;;;;5033350;28;20474;-83
2022/05/02 05:43:03;;;;;;;16.37;10.90;;;10.90;99.90;;;;;;5033432;28;20418;-82
2022/05/02 05:45:56;;;;;;;15.27;10.57;;;10.80;99.90;;;;;;5032931;28;20481;-82
2022/05/02 05:49:00;;;;;;;12.73;9.90;;;10.80;99.90;;;;;;5015515;28;20468;-83
2022/05/02 05:51:48;;;;;;;13.07;10.20;;;10.90;99.90;;;;;;4991249;28;20470;-83
2022/05/02 05:54:44;;;;;;;13.80;10.23;;;11.00;99.90;;;;;;4991253;28;20431;-83
2022/05/02 05:57:57;;;;;;;13.27;9.93;;;10.90;99.90;;;;;;5024498;28;20485;-83
2022/05/02 06:00:25;;;;;;;13.10;11.23;;;11.00;99.90;;;;;;4990679;28;20430;-82
2022/05/02 06:02:53;;;;;;;15.70;10.40;;;11.10;99.90;;;;;;5028500;28;20925;-82
2022/05/02 06:05:19;;;;;;;14.50;10.83;;;11.10;99.90;;;;;;5015098;28;20429;-81
2022/05/02 06:07:46;;;;;;;13.50;10.03;;;11.00;99.90;;;;;;5032384;28;20427;-81
2022/05/02 06:10:14;;;;;;;12.90;10.27;;;11.00;99.90;;;;;;5032668;28;20175;-82
2022/05/02 06:12:41;;;;;;;18.97;13.10;;;11.10;99.90;;;;;;5031911;28;20459;-82
2022/05/02 06:20:43;;;;;;;14.93;11.30;;;11.40;99.90;;;;;;5032992;28;20406;-82
2022/05/02 06:23:11;;;;;;;13.83;11.20;;;11.60;99.90;;;;;;5032031;28;20869;-82
2022/05/02 06:25:39;;;;;;;15.80;11.67;;;11.70;99.90;;;;;;5033094;28;20504;-82
2022/05/02 06:28:07;;;;;;;14.40;11.33;;;12.00;99.90;;;;;;5033143;28;20506;-82
2022/05/02 06:30:35;;;;;;;15.57;11.27;;;12.20;99.90;;;;;;5031670;28;20423;-82
2022/05/02 06:33:08;;;;;;;15.10;12.30;;;12.10;99.90;;;;;;5033201;28;20797;-82
2022/05/02 06:35:42;;;;;;;12.10;9.87;;;12.10;99.90;;;;;;5033552;28;20474;-82
2022/05/02 06:38:17;;;;;;;13.90;11.00;;;12.40;99.90;;;;;;5033818;28;20391;-83
2022/05/02 06:41:20;;;;;;;14.43;11.73;;;12.60;99.90;;;;;;5031864;28;20415;-82
2022/05/02 06:44:13;;;;;;;15.27;10.30;;;12.90;99.90;;;;;;5033119;28;20878;-82
2022/05/02 06:47:10;;;;;;;13.40;10.37;;;13.00;99.90;;;;;;5015340;28;20502;-82
2022/05/02 06:49:42;;;;;;;14.10;10.57;;;13.20;99.90;;;;;;5033306;28;20404;-82
2022/05/02 06:52:11;;;;;;;13.23;9.87;;;13.10;99.90;;;;;;5031291;28;21100;-82
2022/05/02 06:54:43;;;;;;;13.80;11.17;;;13.30;99.90;;;;;;5031762;28;20423;-83
2022/05/02 06:57:14;;;;;;;14.90;11.10;;;13.30;99.90;;;;;;5033016;28;21076;-82
2022/05/02 06:59:51;;;;;;;15.47;12.07;;;13.40;99.90;;;;;;5015391;28;21137;-82
2022/05/02 07:02:50;;;;;;;14.97;10.70;;;13.60;99.90;;;;;;5033082;28;20757;-81
2022/05/02 07:05:36;;;;;;;15.33;11.50;;;13.80;99.90;;;;;;5030986;28;20419;-82
2022/05/02 07:08:06;;;;;;;17.40;12.50;;;14.00;99.90;;;;;;5033074;28;20397;-82
2022/05/02 07:10:37;;;;;;;16.33;10.70;;;14.30;99.90;;;;;;5031181;28;20462;-82
2022/05/02 07:13:18;;;;;;;12.60;11.03;;;14.20;99.90;;;;;;5032669;28;20414;-83
2022/05/02 07:15:45;;;;;;;13.77;11.33;;;14.40;99.90;;;;;;5032574;28;20467;-83
2022/05/02 07:18:21;;;;;;;14.80;12.87;;;14.40;99.90;;;;;;5031131;28;20977;-82
2022/05/02 07:21:29;;;;;;;17.90;10.87;;;14.60;99.90;;;;;;5014613;28;20427;-83
2022/05/02 07:24:20;;;;;;;14.10;10.87;;;14.70;99.90;;;;;;5031026;28;20418;-83
2022/05/02 07:26:56;;;;;;;15.10;11.60;;;15.00;99.90;;;;;;5030897;28;20445;-82
2022/05/02 07:29:24;;;;;;;14.70;11.43;;;15.10;99.90;;;;;;5031416;28;20481;-82
2022/05/02 07:31:50;;;;;;;14.87;11.00;;;15.30;99.90;;;;;;5032088;28;20423;-83
2022/05/02 07:34:17;;;;;;;16.97;11.30;;;15.20;99.90;;;;;;5032290;28;20423;-82
2022/05/02 07:36:50;;;;;;;13.53;10.70;;;15.50;99.90;;;;;;5030676;28;20985;-82
2022/05/02 07:39:19;;;;;;;17.20;10.60;;;15.40;99.90;;;;;;5032561;28;20898;-82
2022/05/02 07:41:46;;;;;;;16.00;11.87;;;15.80;99.90;;;;;;5014305;28;20797;-82
2022/05/02 07:44:13;;;;;;;14.13;11.13;;;16.00;99.90;;;;;;5014017;28;20427;-81
2022/05/02 07:46:44;;;;;;;14.53;11.40;;;16.20;99.90;;;;;;5033875;28;20458;-82
2022/05/02 07:49:13;;;;;;;14.57;11.27;;;16.30;99.90;;;;;;5090095;22;20868;-78
2022/05/02 07:51:50;;;;;;;12.13;10.67;;;16.30;99.90;;;;;;5081290;28;20413;-78
2022/05/02 07:54:25;;;;;;;15.47;12.97;;;16.60;99.90;;;;;;5080522;28;20470;-77
2022/05/02 07:56:55;;;;;;;15.97;11.50;;;16.50;99.90;;;;;;5075652;28;20528;-78
2022/05/02 07:59:29;;;;;;;14.83;11.93;;;17.00;99.90;;;;;;5075855;28;20432;-78
2022/05/02 08:01:56;;;;;;;15.67;11.60;;;17.30;99.90;;;;;;5075365;28;20478;-77
2022/05/02 08:04:23;;;;;;;16.60;11.80;;;17.30;99.90;;;;;;5075505;28;20414;-77
2022/05/02 08:07:09;;;;;;;14.60;11.60;;;17.60;99.90;;;;;;5075216;28;20442;-78
2022/05/02 08:09:41;;;;;;;15.40;11.30;;;18.20;99.90;;;;;;5074957;28;20845;-77
2022/05/02 08:12:50;;;;;;;14.90;11.30;;;19.10;99.90;;;;;;5059187;28;20529;-77
2022/05/02 08:15:22;;;;;;;13.90;11.37;;;19.90;99.90;;;;;;5077561;28;20414;-78
2022/05/02 08:18:35;;;;;;;16.50;10.37;;;20.80;99.90;;;;;;5077681;28;20438;-78
2022/05/02 08:21:17;;;;;;;14.03;11.00;;;21.50;99.90;;;;;;5026357;28;20415;-78
2022/05/02 08:27:19;;;;;;;14.50;11.30;;;23.30;99.90;;;;;;5050082;28;20440;-78
2022/05/02 08:29:47;;;;;;;12.80;10.23;;;23.20;96.30;;;;;;5081055;28;20420;-78
2022/05/02 08:32:36;;;;;;;12.37;10.67;;;;;;;;;;5063526;28;20432;-79
2022/05/02 08:35:41;;;;;;;12.80;9.93;;;24.70;92.80;;;;;;5080306;28;20423;-78
2022/05/02 08:38:34;;;;;;;12.67;10.67;;;26.20;83.60;;;;;;5078805;28;20426;-78
2022/05/02 08:41:31;;;;;;;16.60;11.47;;;26.50;73.70;;;;;;5063477;28;20418;-78
2022/05/02 08:44:25;;;;;;;11.60;9.97;;;26.50;73.80;;;;;;5061868;28;20429;-79
2022/05/02 08:47:10;;;;;;;12.10;10.27;;;27.20;73.70;;;;;;5058985;28;20438;-79
2022/05/02 08:50:15;;;;;;;11.60;10.20;;;28.40;59.30;;;;;;5058495;28;20438;-79
2022/05/02 08:53:00;;;;;;;12.47;10.93;;;28.30;59.80;;;;;;5075890;28;20503;-79
2022/05/02 08:55:32;;;;;;;12.20;10.90;;;29.20;57.20;;;;;;5059326;28;20982;-79
2022/05/02 08:58:27;;;;;;;12.40;10.60;;;28.70;53.50;;;;;;5059302;28;20484;-79
2022/05/02 09:01:14;;;;;;;11.70;9.43;;;29.20;53.10;;;;;;5067628;28;20418;-79
2022/05/02 09:04:05;;;;;;;11.23;10.03;;;29.60;52.50;;;;;;5059864;28;20430;-79
2022/05/02 09:06:49;;;;;;;12.60;11.33;;;29.70;50.90;;;;;;5076048;28;20465;-79
2022/05/02 09:09:40;;;;;;;11.60;9.60;;;30.40;50.00;;;;;;5059528;28;20418;-79
2022/05/02 09:12:31;;;;;;;9.30;8.30;;;32.00;48.40;;;;;;5058806;28;20457;-79
2022/05/02 09:15:18;;;;;;;9.73;8.40;;;32.30;46.80;;;;;;5059269;28;20433;-79
2022/05/02 09:18:02;;;;;;;8.40;7.50;;;32.70;44.40;;;;;;5059213;28;21039;-79
2022/05/02 09:20:54;;;;;;;10.13;7.40;;;33.60;44.10;;;;;;5059441;28;20443;-79
2022/05/02 09:23:29;;;;;;;8.90;7.53;;;33.80;41.10;;;;;;5059304;28;20429;-79
2022/05/02 09:26:14;;;;;;;9.40;8.40;;;33.80;40.80;;;;;;5059272;28;20483;-79
2022/05/02 09:28:51;;;;;;;10.50;8.87;;;34.30;41.90;;;;;;5058669;28;20418;-80
2022/05/02 09:31:42;;;;;;;8.87;7.97;;;34.00;39.60;;;;;;5058475;28;20458;-79
2022/05/02 09:34:27;;;;;;;9.10;7.77;;;34.70;39.60;;;;;;5059428;28;20452;-79
2022/05/02 09:37:03;;;;;;;9.00;7.73;;;34.30;38.10;;;;;;5058521;28;20484;-79
2022/05/02 09:40:03;;;;;;;8.80;7.90;;;35.20;38.70;;;;;;5058789;28;20495;-79
2022/05/02 09:42:50;;;;;;;11.43;8.37;;;34.70;37.50;;;;;;5051034;28;20422;-79
2022/05/02 09:52:09;;;;;;;8.07;7.27;;;36.50;36.80;;;;;;5057717;28;20779;-77
2022/05/02 09:58:01;;;;;;;7.83;6.70;;;36.70;34.20;;;;;;5052906;28;20467;-77
2022/05/02 10:01:07;;;;;;;8.37;7.30;;;37.30;35.40;;;;;;5051886;28;20414;-77
2022/05/02 10:04:12;;;;;;;7.50;6.03;;;37.80;33.50;;;;;;5052699;28;20422;-77
2022/05/02 10:06:54;;;;;;;8.13;6.93;;;37.90;33.80;;;;;;5052684;28;20476;-77
2022/05/02 10:09:45;;;;;;;7.63;6.83;;;37.70;33.30;;;;;;5052508;28;20422;-77
2022/05/02 10:12:29;;;;;;;9.23;8.43;;;38.30;32.50;;;;;;5053317;28;20551;-77
2022/05/02 10:15:10;;;;;;;8.30;7.50;;;37.00;30.00;;;;;;5053031;28;20414;-77
2022/05/02 10:18:08;;;;;;;7.70;6.80;;;36.10;32.80;;;;;;5052621;28;21029;-77
2022/05/02 10:21:06;;;;;;;7.00;5.50;;;34.30;32.60;;;;;;5033730;28;20922;-77
2022/05/02 10:24:02;;;;;;;7.90;6.07;;;33.80;33.70;;;;;;5056009;28;20937;-79
2022/05/02 10:26:39;;;;;;;7.47;6.10;;;34.10;34.80;;;;;;5056460;28;20506;-79
2022/05/02 10:29:30;;;;;;;7.70;5.90;;;34.40;34.80;;;;;;5057101;28;20417;-79
2022/05/02 10:32:15;;;;;;;9.60;7.00;;;35.50;34.50;;;;;;5056883;28;20414;-79
2022/05/02 10:34:46;;;;;;;9.70;7.20;;;36.30;34.80;;;;;;5054351;28;20422;-77
2022/05/02 10:37:15;;;;;;;8.10;6.70;;;36.50;33.40;;;;;;5069741;28;20469;-77
2022/05/02 10:39:48;;;;;;;7.57;6.70;;;37.00;32.60;;;;;;5053006;28;20933;-77
2022/05/02 10:42:19;;;;;;;8.50;6.87;;;36.60;31.20;;;;;;5053404;28;20480;-77
2022/05/02 10:45:07;;;;;;;8.60;6.63;;;36.70;32.10;;;;;;5053454;28;20493;-77
2022/05/02 10:47:59;;;;;;;6.37;5.63;;;35.60;31.30;;;;;;5053318;28;20508;-77
2022/05/02 10:50:37;;;;;;;7.47;6.07;;;34.50;32.50;;;;;;5054890;28;20426;-79
2022/05/02 10:53:30;;;;;;;8.63;6.90;;;31.70;33.30;;;;;;5058278;28;20418;-78
2022/05/02 10:56:10;;;;;;;7.70;6.57;;;30.40;34.50;;;;;;5057726;28;20483;-79
2022/05/02 10:58:41;;;;;;;7.90;6.53;;;29.40;36.60;;;;;;5057851;28;20517;-78
2022/05/02 11:01:07;;;;;;;7.33;6.50;;;28.30;37.30;;;;;;5059377;28;20414;-78
2022/05/02 11:03:44;;;;;;;7.30;6.50;;;28.00;38.30;;;;;;5059263;28;20417;-78
2022/05/02 11:06:49;;;;;;;11.07;7.77;;;27.20;40.10;;;;;;5059752;28;20207;-78
2022/05/02 11:09:25;;;;;;;7.93;6.60;;;26.40;42.30;;;;;;5059284;28;20418;-78
2022/05/02 11:11:54;;;;;;;9.47;6.60;;;26.10;41.60;;;;;;5060125;28;20448;-78
2022/05/02 11:14:48;;;;;;;9.77;6.20;;;26.20;41.30;;;;;;5059838;28;20728;-78
2022/05/02 11:17:45;;;;;;;8.80;6.20;;;26.10;41.70;;;;;;5060510;28;20446;-78
2022/05/02 11:20:42;;;;;;;9.70;7.03;;;26.30;41.90;;;;;;5061317;28;20430;-78
2022/05/02 11:23:40;;;;;;;7.77;6.97;;;26.70;44.00;;;;;;5064792;28;20460;-78
2022/05/02 11:26:43;;;;;;;9.50;7.40;;;27.00;44.40;;;;;;5064429;28;20560;-78
2022/05/02 11:29:41;;;;;;;8.87;7.10;;;27.10;42.30;;;;;;5064661;28;20808;-78
2022/05/02 11:32:39;;;;;;;7.10;5.87;;;27.60;42.40;;;;;;5067399;28;21029;-78
2022/05/02 11:35:34;;;;;;;7.67;5.63;;;28.10;43.10;;;;;;5076067;28;20429;-78
2022/05/02 11:38:09;;;;;;;7.40;6.17;;;27.90;42.00;;;;;;5064712;28;20438;-78
2022/05/02 11:40:43;;;;;;;8.93;7.10;;;28.10;41.80;;;;;;5064379;28;20420;-79
2022/05/02 11:43:11;;;;;;;7.33;6.10;;;27.20;40.80;;;;;;5067412;28;20426;-79
2022/05/02 11:45:47;;;;;;;8.47;7.57;;;27.60;42.30;;;;;;5064465;28;20474;-78
2022/05/02 11:49:12;;;;;;;8.40;7.23;;;27.30;42.40;;;;;;5064089;28;20422;-78
2022/05/02 11:51:45;;;;;;;8.13;7.10;;;26.70;42.90;;;;;;5023954;28;20457;-79
2022/05/02 11:54:28;;;;;;;8.33;6.63;;;25.90;43.80;;;;;;5062404;28;20422;-79
2022/05/02 11:56:55;;;;;;;8.90;7.43;;;26.10;45.20;;;;;;5062914;28;20464;-78
2022/05/02 11:59:24;;;;;;;7.17;6.30;;;26.90;44.80;;;;;;5059018;28;20421;-79
2022/05/02 12:02:13;;;;;;;7.53;6.23;;;27.60;45.20;;;;;;5060020;28;20426;-79
2022/05/02 12:04:44;;;;;;;7.70;6.60;;;28.80;43.70;;;;;;5060909;28;20422;-79
2022/05/02 12:07:14;;;;;;;8.67;7.43;;;29.60;42.70;;;;;;5056277;28;20530;-79
2022/05/02 12:09:42;;;;;;;7.80;7.00;;;30.00;40.20;;;;;;5059796;28;20421;-79
2022/05/02 12:12:09;;;;;;;8.83;7.67;;;29.40;38.60;;;;;;5061386;28;20414;-78
2022/05/02 12:14:36;;;;;;;8.00;7.20;;;29.00;40.00;;;;;;5064298;28;20751;-78
2022/05/02 12:17:09;;;;;;;7.60;6.90;;;28.70;40.00;;;;;;5064097;28;20450;-77
2022/05/02 12:19:36;;;;;;;8.87;7.97;;;28.90;40.60;;;;;;5062640;28;20976;-79
2022/05/02 12:22:22;;;;;;;9.90;7.07;;;29.90;39.40;;;;;;5063450;28;20472;-78
2022/05/02 12:24:50;;;;;;;9.90;6.77;;;31.20;39.10;;;;;;5064209;28;21003;-77
2022/05/02 12:27:18;;;;;;;7.60;6.33;;;34.50;38.20;;;;;;5063923;28;20470;-78
2022/05/02 12:29:54;;;;;;;8.90;6.93;;;35.00;35.40;;;;;;5062904;28;20440;-78
2022/05/02 12:32:25;;;;;;;7.63;6.30;;;34.70;33.30;;;;;;5062871;28;20416;-78
2022/05/02 12:34:56;;;;;;;8.43;7.27;;;34.10;35.00;;;;;;5062300;28;20415;-78
2022/05/02 12:37:33;;;;;;;7.90;7.00;;;32.00;35.40;;;;;;5062400;28;20444;-79
2022/05/02 12:40:12;;;;;;;8.50;7.30;;;31.60;36.60;;;;;;5062863;28;20418;-78
2022/05/02 12:42:47;;;;;;;8.33;7.43;;;30.70;35.90;;;;;;5065260;28;20449;-78
2022/05/02 12:45:15;;;;;;;8.90;6.90;;;30.50;36.50;;;;;;5064541;28;20509;-78
2022/05/02 12:47:55;;;;;;;8.00;7.20;;;30.60;37.10;;;;;;5059462;28;20418;-78
2022/05/02 12:50:25;;;;;;;9.63;7.70;;;30.10;37.50;;;;;;5057285;28;20249;-78
2022/05/02 12:53:05;;;;;;;9.30;7.27;;;29.40;38.30;;;;;;5057792;28;20418;-78
2022/05/02 12:55:34;;;;;;;7.57;6.70;;;28.70;38.00;;;;;;5057708;28;20960;-78
2022/05/02 13:00:48;;;;;;;7.17;6.10;;;28.10;39.40;;;;;;5059022;28;20397;-78
2022/05/02 13:03:23;;;;;;;8.80;6.90;;;27.80;41.20;;;;;;5058322;28;20414;-79
2022/05/02 13:05:57;;;;;;;8.20;7.20;;;27.70;42.10;;;;;;5059997;28;20467;-78
2022/05/02 13:08:34;;;;;;;8.20;7.33;;;28.10;41.40;;;;;;5059295;28;20414;-78
2022/05/02 13:11:35;;;;;;;8.20;6.73;;;28.30;41.60;;;;;;5059294;28;20418;-78
2022/05/02 13:14:03;;;;;;;7.33;6.53;;;28.50;41.50;;;;;;5051696;28;20421;-78
2022/05/02 13:16:40;;;;;;;7.77;6.80;;;28.10;40.90;;;;;;5060370;28;20442;-78
2022/05/02 13:19:07;;;;;;;7.77;6.70;;;26.90;40.30;;;;;;5060716;28;20505;-78
2022/05/02 13:21:33;;;;;;;6.80;6.10;;;26.50;43.60;;;;;;5060138;28;20432;-78
2022/05/02 13:24:07;;;;;;;8.37;6.63;;;26.80;41.20;;;;;;5060184;28;20422;-78
2022/05/02 13:26:42;;;;;;;7.37;6.60;;;27.90;39.90;;;;;;5061591;28;20476;-78
2022/05/02 13:29:08;;;;;;;7.73;6.13;;;29.40;38.90;;;;;;5060688;28;20422;-78
2022/05/02 13:31:45;;;;;;;7.93;7.17;;;30.50;37.90;;;;;;5061136;28;20433;-78
2022/05/02 13:34:29;;;;;;;8.77;5.93;;;31.80;37.30;;;;;;5061344;28;20284;-78
2022/05/02 13:37:07;;;;;;;7.67;6.37;;;32.30;36.00;;;;;;5059942;28;20583;-79
2022/05/02 13:39:59;;;;;;;7.53;6.80;;;32.10;36.30;;;;;;5060713;28;20860;-78
2022/05/02 13:42:36;;;;;;;7.33;6.30;;;30.50;36.00;;;;;;5060064;28;20426;-78
2022/05/02 13:45:05;;;;;;;8.03;7.23;;;30.20;37.50;;;;;;5060345;28;20426;-78
2022/05/02 13:47:46;;;;;;;8.03;7.23;;;28.60;37.50;;;;;;5061532;28;20529;-78